Time;durP1;ratioP1;P1;durP2;ratioP2;P2;SDS_P1;SDS_P2;PMS_P1;PMS_P2;Temp;Humidity;BMP_temperature;BMP_pressure;BME280_temperature;BME280_humidity;BME280_pressure;Samples;Min_cycle;Max_cycle;Signal;HPM_P1;HPM_P2
2023/01/20 00:01:17;;;;;;;1.27;0.57;;;16.70;1.00;;;;;;5012239;28;20041;-31
2023/01/20 00:03:44;;;;;;;2.42;0.40;;;16.60;1.00;;;;;;5012002;28;20161;-31
2023/01/20 00:06:11;;;;;;;1.90;0.52;;;16.60;1.00;;;;;;5011247;28;20426;-31
2023/01/20 00:08:38;;;;;;;1.55;0.38;;;16.60;1.00;;;;;;5012144;28;20061;-31
2023/01/20 00:11:07;;;;;;;1.40;0.43;;;16.60;1.00;;;;;;5010994;28;20061;-31
2023/01/20 00:13:35;;;;;;;1.75;0.55;;;16.50;1.00;;;;;;5010686;28;20413;-31
2023/01/20 00:16:03;;;;;;;1.75;0.38;;;16.50;1.00;;;;;;5012019;28;20088;-32
2023/01/20 00:18:31;;;;;;;1.02;0.40;;;16.50;1.00;;;;;;5012004;28;20161;-31
2023/01/20 00:21:05;;;;;;;0.90;0.50;;;16.50;1.00;;;;;;5011982;28;20046;-31
2023/01/20 00:23:32;;;;;;;2.03;0.50;;;16.40;1.00;;;;;;5011776;28;20225;-32
2023/01/20 00:26:04;;;;;;;1.70;0.52;;;16.40;1.00;;;;;;5011955;28;20049;-31
2023/01/20 00:28:31;;;;;;;0.70;0.40;;;16.40;1.00;;;;;;5011839;28;20124;-31
2023/01/20 00:31:08;;;;;;;1.00;0.22;;;16.30;1.00;;;;;;5011895;28;20125;-31
2023/01/20 00:33:35;;;;;;;1.00;0.30;;;16.30;1.00;;;;;;5011618;28;20041;-31
2023/01/20 00:36:02;;;;;;;1.90;0.60;;;16.30;1.00;;;;;;5011904;28;20038;-31
2023/01/20 00:38:28;;;;;;;1.20;0.65;;;16.30;1.00;;;;;;5011894;28;20044;-31
2023/01/20 00:40:55;;;;;;;1.08;0.38;;;16.30;1.00;;;;;;5011799;28;20052;-31
2023/01/20 00:43:22;;;;;;;0.80;0.40;;;16.20;1.00;;;;;;5011521;28;20052;-31
2023/01/20 00:45:48;;;;;;;1.23;0.57;;;16.20;1.00;;;;;;5011690;28;20052;-31
2023/01/20 00:48:15;;;;;;;1.00;0.52;;;16.20;1.00;;;;;;5011735;28;20042;-31
2023/01/20 00:50:42;;;;;;;1.05;0.50;;;16.20;1.00;;;;;;5011663;28;20046;-31
2023/01/20 00:53:09;;;;;;;1.80;0.65;;;16.10;1.00;;;;;;5011529;28;20049;-31
2023/01/20 00:55:36;;;;;;;1.58;0.45;;;16.10;1.00;;;;;;5011630;28;20485;-31
2023/01/20 00:58:02;;;;;;;0.75;0.52;;;16.10;1.00;;;;;;5011595;28;20076;-32
2023/01/20 01:00:29;;;;;;;0.68;0.25;;;16.00;1.00;;;;;;5011578;28;20107;-31
2023/01/20 01:02:56;;;;;;;0.80;0.40;;;16.00;1.00;;;;;;5010273;28;20497;-31
2023/01/20 01:05:23;;;;;;;1.05;0.30;;;16.00;1.00;;;;;;5011653;28;20049;-31
2023/01/20 01:07:50;;;;;;;1.38;0.38;;;16.00;1.00;;;;;;5011690;28;20062;-31
2023/01/20 01:10:17;;;;;;;1.65;0.80;;;16.00;1.00;;;;;;5011431;28;20493;-31
2023/01/20 01:12:43;;;;;;;1.10;0.65;;;15.90;1.00;;;;;;5011172;28;20041;-31
2023/01/20 01:15:10;;;;;;;1.05;0.50;;;15.90;1.00;;;;;;5011594;28;20132;-31
2023/01/20 01:17:37;;;;;;;1.45;0.65;;;15.90;1.00;;;;;;5013931;28;20038;-31
2023/01/20 01:20:04;;;;;;;2.95;1.75;;;15.90;1.00;;;;;;5015316;28;20387;-31
2023/01/20 01:22:32;;;;;;;1.33;0.30;;;15.80;1.00;;;;;;5015098;28;20449;-31
2023/01/20 01:24:58;;;;;;;0.85;0.40;;;15.80;1.00;;;;;;5014887;28;20041;-31
2023/01/20 01:27:27;;;;;;;0.95;0.40;;;15.80;1.00;;;;;;5014794;28;20069;-31
2023/01/20 01:29:54;;;;;;;2.40;0.60;;;15.80;1.00;;;;;;5014823;28;20042;-31
2023/01/20 01:32:22;;;;;;;1.52;0.40;;;15.80;1.00;;;;;;5014738;28;20046;-31
2023/01/20 01:34:49;;;;;;;1.70;0.90;;;15.70;1.00;;;;;;5014640;28;20098;-31
2023/01/20 01:37:15;;;;;;;1.30;0.63;;;15.70;1.00;;;;;;5014928;28;20112;-31
2023/01/20 01:39:42;;;;;;;1.67;0.63;;;15.70;1.00;;;;;;5014644;28;20481;-31
2023/01/20 01:42:14;;;;;;;1.40;0.93;;;15.70;1.00;;;;;;5014494;28;20042;-31
2023/01/20 01:45:09;;;;;;;0.68;0.43;;;15.60;1.00;;;;;;5014605;28;20053;-31
2023/01/20 01:48:04;;;;;;;2.30;0.60;;;15.60;1.00;;;;;;5014795;28;20045;-31
2023/01/20 01:50:35;;;;;;;0.77;0.30;;;15.60;1.00;;;;;;5014496;28;20045;-31
2023/01/20 01:53:02;;;;;;;1.60;0.40;;;15.60;1.00;;;;;;5012958;28;20054;-31
2023/01/20 01:55:35;;;;;;;0.90;0.68;;;15.60;1.00;;;;;;5014466;28;20104;-31
2023/01/20 01:58:05;;;;;;;2.25;0.70;;;15.50;1.00;;;;;;5014436;28;20459;-31
2023/01/20 02:00:32;;;;;;;1.17;0.60;;;15.50;1.00;;;;;;5014217;28;20129;-31
2023/01/20 02:02:59;;;;;;;1.17;0.50;;;15.50;1.00;;;;;;5013976;28;20107;-31
2023/01/20 02:05:28;;;;;;;1.92;0.65;;;15.50;1.00;;;;;;5014513;28;20133;-31
2023/01/20 02:07:57;;;;;;;2.13;0.90;;;15.50;1.00;;;;;;5014392;28;20460;-31
2023/01/20 02:10:24;;;;;;;0.93;0.40;;;15.50;1.00;;;;;;5013917;28;20046;-31
2023/01/20 02:12:51;;;;;;;0.80;0.43;;;15.40;1.00;;;;;;5013767;28;20052;-31
2023/01/20 02:15:24;;;;;;;1.95;0.73;;;15.40;1.00;;;;;;5013973;28;20037;-31
2023/01/20 02:18:10;;;;;;;1.58;0.60;;;15.40;1.00;;;;;;5014116;28;20034;-31
2023/01/20 02:20:59;;;;;;;1.40;0.50;;;15.40;1.00;;;;;;5014084;28;20042;-32
2023/01/20 02:24:03;;;;;;;0.80;0.47;;;15.30;1.00;;;;;;5013693;28;20045;-31
2023/01/20 02:27:07;;;;;;;1.77;0.70;;;15.30;1.00;;;;;;5013818;28;20417;-31
2023/01/20 02:30:03;;;;;;;1.52;0.55;;;15.30;1.00;;;;;;5012963;28;20464;-31
2023/01/20 02:32:43;;;;;;;4.90;0.80;;;15.30;1.00;;;;;;5013714;28;20042;-31
2023/01/20 02:35:33;;;;;;;0.98;0.50;;;15.20;1.00;;;;;;5013761;28;20546;-31
2023/01/20 02:38:03;;;;;;;1.67;0.43;;;15.20;1.00;;;;;;5013821;28;20172;-31
2023/01/20 02:41:00;;;;;;;2.30;0.88;;;15.20;1.00;;;;;;5013553;28;20042;-31
2023/01/20 02:43:58;;;;;;;2.47;0.55;;;15.20;1.00;;;;;;5013306;28;20045;-31
2023/01/20 02:46:25;;;;;;;1.30;0.70;;;15.20;1.00;;;;;;5013288;28;20478;-31
2023/01/20 02:48:59;;;;;;;1.65;0.40;;;15.10;1.00;;;;;;5013319;28;20065;-31
2023/01/20 02:51:37;;;;;;;1.02;0.50;;;15.10;1.00;;;;;;5013531;28;20049;-31
2023/01/20 02:54:07;;;;;;;1.50;0.73;;;15.10;1.00;;;;;;5013049;28;20116;-31
2023/01/20 02:56:35;;;;;;;3.08;0.85;;;15.10;1.00;;;;;;5013359;28;20099;-31
2023/01/20 02:59:12;;;;;;;1.15;0.52;;;15.10;1.00;;;;;;5013124;28;20121;-31
2023/01/20 03:01:47;;;;;;;2.65;0.80;;;15.00;1.00;;;;;;5013167;28;20034;-31
2023/01/20 03:04:17;;;;;;;0.93;0.40;;;15.00;1.00;;;;;;5012981;28;20045;-31
2023/01/20 03:06:51;;;;;;;1.42;0.60;;;15.00;1.00;;;;;;5013191;28;20046;-31
2023/01/20 03:09:19;;;;;;;;;;;15.00;1.00;;;;;;5013379;28;20042;-31
2023/01/20 03:11:53;;;;;;;2.75;0.82;;;15.00;1.00;;;;;;5013113;28;19964;-31
2023/01/20 03:14:20;;;;;;;3.30;0.70;;;15.00;1.00;;;;;;5012692;28;20445;-31
2023/01/20 03:16:49;;;;;;;2.05;0.47;;;14.90;1.00;;;;;;5013030;28;20037;-31
2023/01/20 03:19:17;;;;;;;0.82;0.47;;;14.90;1.00;;;;;;5012920;28;20482;-31
2023/01/20 03:21:47;;;;;;;2.95;0.80;;;14.90;1.00;;;;;;5012888;28;20037;-31
2023/01/20 03:24:14;;;;;;;1.20;0.60;;;14.90;1.00;;;;;;5012478;28;20045;-31
2023/01/20 03:26:41;;;;;;;1.55;0.50;;;14.90;1.00;;;;;;5012766;28;20046;-31
2023/01/20 03:29:14;;;;;;;1.75;0.68;;;14.90;1.00;;;;;;5012742;28;20046;-31
2023/01/20 03:31:46;;;;;;;2.75;0.77;;;14.80;1.00;;;;;;5012934;28;20044;-31
2023/01/20 03:34:17;;;;;;;1.70;0.63;;;14.80;1.00;;;;;;5012359;28;20076;-32
2023/01/20 03:36:45;;;;;;;2.80;0.77;;;14.80;1.00;;;;;;5012627;28;20045;-31
2023/01/20 03:39:13;;;;;;;3.03;0.90;;;14.80;1.00;;;;;;5012374;28;20664;-31
2023/01/20 03:41:58;;;;;;;1.77;1.00;;;14.80;1.00;;;;;;5011394;28;20569;-31
2023/01/20 03:44:34;;;;;;;1.38;0.45;;;14.80;1.00;;;;;;5012262;28;20125;-31
2023/01/20 03:47:11;;;;;;;2.08;0.50;;;14.70;1.00;;;;;;5012384;28;20094;-31
2023/01/20 03:49:50;;;;;;;1.25;0.52;;;14.70;1.00;;;;;;5012440;28;20490;-31
2023/01/20 03:53:01;;;;;;;1.52;0.65;;;14.70;1.00;;;;;;5012267;28;20580;-31
2023/01/20 03:55:44;;;;;;;1.17;0.50;;;14.70;1.00;;;;;;4932507;29;20134;-31
2023/01/20 03:58:15;;;;;;;1.38;0.50;;;14.70;1.00;;;;;;5010398;28;20084;-31
2023/01/20 04:00:45;;;;;;;1.75;0.65;;;14.70;1.00;;;;;;5012240;28;20101;-31
2023/01/20 04:03:28;;;;;;;1.38;0.65;;;14.70;1.00;;;;;;5011984;28;20504;-31
2023/01/20 04:05:56;;;;;;;2.60;0.80;;;14.60;1.00;;;;;;5012229;28;20045;-31
2023/01/20 04:08:28;;;;;;;1.88;0.77;;;14.60;1.00;;;;;;5012004;28;20034;-32
2023/01/20 04:10:58;;;;;;;1.67;0.50;;;14.60;1.00;;;;;;5012191;28;20068;-31
2023/01/20 04:13:25;;;;;;;1.42;0.52;;;14.60;1.00;;;;;;5011829;28;20068;-31
2023/01/20 04:15:52;;;;;;;2.20;0.80;;;14.60;1.00;;;;;;5011981;28;20045;-31
2023/01/20 04:18:23;;;;;;;1.42;0.40;;;14.50;1.00;;;;;;5012432;28;20037;-31
2023/01/20 04:20:53;;;;;;;1.52;0.90;;;14.50;1.00;;;;;;5012088;28;20485;-31
2023/01/20 04:23:40;;;;;;;1.83;0.70;;;14.50;1.00;;;;;;5011770;28;20723;-31
2023/01/20 04:26:07;;;;;;;0.98;0.50;;;14.50;1.00;;;;;;5010838;28;20088;-31
2023/01/20 04:28:34;;;;;;;2.30;0.70;;;14.50;1.00;;;;;;5022906;23;20469;-39
2023/01/20 04:31:01;;;;;;;2.00;0.90;;;14.50;1.00;;;;;;4989889;28;20042;-39
2023/01/20 04:33:27;;;;;;;1.75;0.93;;;14.50;1.00;;;;;;4990719;28;20121;-38
2023/01/20 04:35:54;;;;;;;1.75;0.57;;;14.50;1.00;;;;;;4991375;28;20077;-39
2023/01/20 04:38:21;;;;;;;3.13;0.70;;;14.50;1.00;;;;;;4991312;28;20124;-39
2023/01/20 04:40:48;;;;;;;1.30;0.40;;;14.50;1.00;;;;;;4991273;28;20490;-39
2023/01/20 04:43:14;;;;;;;1.33;0.60;;;14.40;1.00;;;;;;4991097;28;20411;-38
2023/01/20 04:45:41;;;;;;;1.15;0.43;;;14.40;1.00;;;;;;4991399;28;20103;-38
2023/01/20 04:48:08;;;;;;;1.73;0.70;;;14.40;1.00;;;;;;4991219;28;20070;-38
2023/01/20 04:50:39;;;;;;;1.58;0.50;;;14.40;1.00;;;;;;4991479;28;20050;-38
2023/01/20 04:53:09;;;;;;;1.60;0.80;;;14.40;1.00;;;;;;4994002;28;20533;-39
2023/01/20 04:55:36;;;;;;;1.70;0.90;;;14.30;1.00;;;;;;4994477;28;20692;-39
2023/01/20 04:58:03;;;;;;;1.70;0.57;;;14.40;1.00;;;;;;4994750;28;20039;-38
2023/01/20 05:00:30;;;;;;;1.60;0.80;;;14.30;1.00;;;;;;4994629;28;20038;-38
2023/01/20 05:02:57;;;;;;;3.33;1.02;;;14.30;1.00;;;;;;4994254;28;20517;-38
2023/01/20 05:05:24;;;;;;;2.80;0.60;;;14.30;1.00;;;;;;4994474;28;20053;-38
2023/01/20 05:07:52;;;;;;;0.90;0.63;;;14.30;1.00;;;;;;4994547;28;20038;-38
2023/01/20 05:10:19;;;;;;;1.75;0.50;;;14.30;1.00;;;;;;4993702;28;20054;-38
2023/01/20 05:12:46;;;;;;;2.13;0.38;;;14.30;1.00;;;;;;4988767;28;20104;-38
2023/01/20 05:15:13;;;;;;;2.40;0.43;;;14.30;1.00;;;;;;4994120;28;20042;-38
2023/01/20 05:17:40;;;;;;;1.58;0.30;;;14.30;1.00;;;;;;4994333;28;20046;-39
2023/01/20 05:20:08;;;;;;;2.08;0.50;;;14.30;1.00;;;;;;4994175;28;20046;-39
2023/01/20 05:22:34;;;;;;;1.30;0.43;;;14.20;1.00;;;;;;4991818;28;20038;-39
2023/01/20 05:25:01;;;;;;;1.75;0.63;;;14.20;1.00;;;;;;5007541;28;20121;-40
2023/01/20 05:27:28;;;;;;;2.53;0.95;;;14.20;1.00;;;;;;4992713;28;20038;-39
2023/01/20 05:29:54;;;;;;;4.95;0.70;;;14.20;1.00;;;;;;4447699;28;15042963;-39
2023/01/20 05:32:21;;;;;;;2.15;0.57;;;14.20;1.00;;;;;;4994363;28;20109;-39
2023/01/20 05:34:48;;;;;;;1.10;0.82;;;14.20;1.00;;;;;;4989808;28;21296;-39
2023/01/20 05:37:17;;;;;;;12.85;0.93;;;14.20;1.00;;;;;;4994911;28;20125;-39
2023/01/20 05:39:44;;;;;;;2.45;0.60;;;14.20;1.00;;;;;;4995143;28;20065;-39
2023/01/20 05:42:11;;;;;;;1.00;0.60;;;14.10;1.00;;;;;;4994981;28;20089;-39
2023/01/20 05:44:38;;;;;;;4.72;0.63;;;14.10;1.00;;;;;;4994905;28;20073;-39
2023/01/20 05:47:04;;;;;;;8.32;0.60;;;14.10;1.00;;;;;;4995059;28;20077;-39
2023/01/20 05:49:31;;;;;;;2.40;0.82;;;14.10;1.00;;;;;;4994947;28;20531;-41
2023/01/20 05:51:58;;;;;;;1.23;0.40;;;14.10;1.00;;;;;;4994805;28;20065;-40
2023/01/20 05:54:25;;;;;;;3.85;0.85;;;14.10;1.00;;;;;;4994720;28;20429;-41
2023/01/20 05:56:51;;;;;;;1.13;0.45;;;14.10;1.00;;;;;;4994766;28;20047;-41
2023/01/20 05:59:18;;;;;;;2.53;0.75;;;14.10;1.00;;;;;;4994809;28;20088;-41
2023/01/20 06:01:45;;;;;;;1.75;0.40;;;14.00;1.00;;;;;;4994898;28;20058;-41
2023/01/20 06:04:12;;;;;;;4.20;0.70;;;14.00;1.00;;;;;;4988354;28;20582;-41
2023/01/20 06:06:38;;;;;;;0.70;0.30;;;14.00;1.00;;;;;;4989077;28;20404;-41
2023/01/20 06:09:05;;;;;;;2.72;0.68;;;14.00;1.00;;;;;;4993445;28;20560;-41
2023/01/20 06:11:32;;;;;;;1.52;0.40;;;14.00;1.00;;;;;;4994290;28;20073;-40
2023/01/20 06:13:59;;;;;;;1.10;0.40;;;14.00;1.00;;;;;;4994280;28;20508;-41
2023/01/20 06:16:25;;;;;;;1.33;0.38;;;14.00;1.00;;;;;;4994334;28;20548;-41
2023/01/20 06:18:52;;;;;;;1.55;0.68;;;14.00;1.00;;;;;;4994351;28;20129;-41
2023/01/20 06:21:19;;;;;;;1.58;0.90;;;14.00;1.00;;;;;;4994385;28;20046;-40
2023/01/20 06:23:46;;;;;;;2.25;0.60;;;13.90;1.00;;;;;;4994224;28;20413;-41
2023/01/20 06:26:13;;;;;;;3.20;0.70;;;13.90;1.00;;;;;;4994338;28;20054;-41
2023/01/20 06:28:40;;;;;;;2.85;0.70;;;13.90;1.00;;;;;;4992935;28;20035;-41
2023/01/20 06:31:09;;;;;;;1.23;0.35;;;13.90;1.00;;;;;;4992846;28;20077;-41
2023/01/20 06:33:36;;;;;;;4.55;0.73;;;13.90;1.00;;;;;;4993855;28;20528;-41
2023/01/20 06:36:05;;;;;;;1.13;0.30;;;13.90;1.00;;;;;;4994125;28;20042;-41
2023/01/20 06:38:34;;;;;;;2.15;0.47;;;13.90;1.00;;;;;;4994274;28;20409;-41
2023/01/20 06:41:03;;;;;;;1.02;0.35;;;13.90;1.00;;;;;;4994054;28;20486;-41
2023/01/20 06:43:32;;;;;;;2.85;0.98;;;13.90;1.00;;;;;;4993826;28;20042;-41
2023/01/20 06:46:05;;;;;;;3.80;0.40;;;13.90;1.00;;;;;;4993834;28;20046;-41
2023/01/20 06:48:32;;;;;;;1.75;0.50;;;13.80;1.00;;;;;;4993893;28;20043;-41
2023/01/20 06:51:00;;;;;;;1.23;0.75;;;13.80;1.00;;;;;;4993847;28;20516;-41
2023/01/20 06:53:27;;;;;;;1.20;0.50;;;13.80;1.00;;;;;;4992486;28;20160;-41
2023/01/20 06:55:58;;;;;;;1.08;0.43;;;13.80;1.00;;;;;;4993751;28;20073;-41
2023/01/20 06:58:27;;;;;;;2.05;0.35;;;13.80;1.00;;;;;;4993564;28;20121;-42
2023/01/20 07:00:55;;;;;;;1.17;0.50;;;13.80;1.00;;;;;;4993841;28;20046;-41
2023/01/20 07:03:23;;;;;;;1.85;0.75;;;13.80;1.00;;;;;;4993492;28;20097;-41
2023/01/20 07:05:57;;;;;;;2.40;0.40;;;13.80;1.00;;;;;;4993526;28;20057;-41
2023/01/20 07:08:24;;;;;;;3.72;0.82;;;13.80;1.00;;;;;;4992186;28;20524;-42
2023/01/20 07:10:51;;;;;;;1.42;0.60;;;13.70;1.00;;;;;;4992303;28;20048;-41
2023/01/20 07:13:17;;;;;;;1.67;0.68;;;13.70;1.00;;;;;;4993138;28;20047;-41
2023/01/20 07:15:44;;;;;;;1.40;0.70;;;13.70;1.00;;;;;;4992824;28;20479;-41
2023/01/20 07:18:11;;;;;;;2.38;0.47;;;13.70;1.00;;;;;;4993290;28;20608;-41
2023/01/20 07:20:38;;;;;;;1.50;0.60;;;13.70;1.00;;;;;;4992904;28;20100;-41
2023/01/20 07:23:05;;;;;;;2.35;0.57;;;13.70;1.00;;;;;;4992984;28;20053;-41
2023/01/20 07:25:32;;;;;;;0.77;0.40;;;13.70;1.00;;;;;;4993027;28;20053;-41
2023/01/20 07:27:58;;;;;;;1.67;0.47;;;13.70;1.00;;;;;;4993173;28;20046;-41
2023/01/20 07:30:25;;;;;;;1.58;0.50;;;13.60;1.00;;;;;;4993002;28;20069;-41
2023/01/20 07:32:52;;;;;;;0.70;0.30;;;13.60;1.00;;;;;;4992762;28;20038;-41
2023/01/20 07:35:19;;;;;;;2.78;0.63;;;13.60;1.00;;;;;;4992991;28;20042;-41
2023/01/20 07:37:46;;;;;;;0.85;0.30;;;13.60;1.00;;;;;;4993079;28;20043;-42
2023/01/20 07:40:13;;;;;;;2.35;0.68;;;13.60;1.00;;;;;;4992585;28;20050;-41
2023/01/20 07:42:39;;;;;;;2.70;0.60;;;13.60;1.00;;;;;;4992634;28;20048;-41
2023/01/20 07:45:07;;;;;;;1.92;0.70;;;13.60;1.00;;;;;;4990319;28;20100;-41
2023/01/20 07:47:33;;;;;;;2.80;0.50;;;13.60;1.00;;;;;;4988743;28;20050;-41
2023/01/20 07:50:00;;;;;;;2.05;0.65;;;13.60;1.00;;;;;;4989422;28;20157;-41
2023/01/20 07:52:27;;;;;;;1.23;0.80;;;13.60;1.00;;;;;;4991212;28;20050;-41
2023/01/20 07:54:54;;;;;;;1.80;0.60;;;13.50;1.00;;;;;;4992771;28;20050;-41
2023/01/20 07:57:20;;;;;;;1.58;0.60;;;13.60;1.00;;;;;;4992937;28;20042;-41
2023/01/20 07:59:47;;;;;;;0.98;0.47;;;13.50;1.00;;;;;;4991670;28;20053;-41
2023/01/20 08:02:14;;;;;;;1.55;0.75;;;13.50;1.00;;;;;;4992431;28;20082;-41
2023/01/20 08:04:50;;;;;;;2.05;0.75;;;13.50;1.00;;;;;;4992519;28;20092;-41
2023/01/20 08:07:20;;;;;;;3.08;0.75;;;13.50;1.00;;;;;;4992465;28;20042;-41
2023/01/20 08:09:49;;;;;;;1.38;0.60;;;13.50;1.00;;;;;;4992353;28;20536;-41
2023/01/20 08:12:18;;;;;;;1.05;0.63;;;13.50;1.00;;;;;;4992396;28;20052;-41
2023/01/20 08:14:49;;;;;;;2.17;0.60;;;13.50;1.00;;;;;;4992567;28;20064;-41
2023/01/20 08:17:16;;;;;;;1.75;0.73;;;13.50;1.00;;;;;;4992414;28;20042;-41
2023/01/20 08:19:43;;;;;;;1.98;0.80;;;13.50;1.00;;;;;;4992310;28;20038;-41
2023/01/20 08:22:10;;;;;;;2.42;0.98;;;13.50;1.00;;;;;;4992330;28;20134;-41
2023/01/20 08:24:36;;;;;;;3.42;1.58;;;13.40;1.00;;;;;;4992027;28;20046;-41
2023/01/20 08:27:03;;;;;;;2.22;1.02;;;13.50;1.00;;;;;;4990399;28;20050;-41
2023/01/20 08:29:32;;;;;;;2.20;0.95;;;13.50;1.00;;;;;;4991907;28;20089;-41
2023/01/20 08:32:00;;;;;;;3.40;0.95;;;13.60;1.00;;;;;;4990687;28;20079;-41
2023/01/20 08:34:27;;;;;;;4.70;1.02;;;13.60;1.00;;;;;;4990474;28;20394;-41
2023/01/20 08:36:56;;;;;;;2.00;0.70;;;13.70;1.00;;;;;;4991912;28;20073;-41
2023/01/20 08:39:23;;;;;;;2.97;1.00;;;13.80;1.00;;;;;;4994973;28;20039;-42
2023/01/20 08:41:50;;;;;;;2.30;1.02;;;14.00;1.00;;;;;;4996034;28;20047;-41
2023/01/20 08:44:17;;;;;;;1.42;0.60;;;14.10;1.00;;;;;;4995973;28;20067;-42
2023/01/20 08:46:44;;;;;;;2.10;0.90;;;14.20;1.00;;;;;;4995993;28;20042;-42
2023/01/20 08:49:15;;;;;;;1.70;0.90;;;14.30;1.00;;;;;;4995890;28;20065;-41
2023/01/20 08:51:43;;;;;;;1.50;0.68;;;14.40;1.00;;;;;;4994657;28;20057;-41
2023/01/20 08:54:10;;;;;;;1.90;1.05;;;14.50;1.00;;;;;;4995666;28;20038;-42
2023/01/20 08:56:37;;;;;;;1.58;0.98;;;14.60;1.00;;;;;;4995749;28;20560;-41
2023/01/20 08:59:04;;;;;;;2.05;1.10;;;14.60;1.00;;;;;;4995892;28;20105;-41
2023/01/20 09:01:35;;;;;;;2.78;0.88;;;14.70;1.00;;;;;;4995736;28;20051;-39
2023/01/20 09:04:02;;;;;;;2.03;1.08;;;14.80;1.00;;;;;;4995530;28;20105;-41
2023/01/20 09:06:41;;;;;;;3.28;1.23;;;14.80;1.00;;;;;;4994819;28;20054;-41
2023/01/20 09:09:09;;;;;;;1.50;0.75;;;14.90;1.00;;;;;;4995710;28;20108;-41
2023/01/20 09:11:38;;;;;;;1.25;0.75;;;14.90;1.00;;;;;;4995737;28;20174;-41
2023/01/20 09:14:05;;;;;;;3.97;2.03;;;14.90;1.00;;;;;;4993998;28;20054;-42
2023/01/20 09:16:31;;;;;;;7.47;1.27;;;14.90;1.00;;;;;;4977949;28;20038;-41
2023/01/20 09:18:58;;;;;;;3.28;1.52;;;14.90;1.00;;;;;;4995506;28;20068;-41
2023/01/20 09:21:25;;;;;;;1.70;1.00;;;15.00;1.00;;;;;;4995418;28;20117;-41
2023/01/20 09:23:52;;;;;;;3.45;1.85;;;15.00;1.00;;;;;;4995232;28;20100;-41
2023/01/20 09:26:18;;;;;;;2.75;1.40;;;15.00;1.00;;;;;;4995264;28;20072;-41
2023/01/20 09:29:07;;;;;;;2.85;1.33;;;15.00;1.00;;;;;;4995283;28;20408;-41
2023/01/20 09:31:42;;;;;;;2.17;1.05;;;15.00;1.00;;;;;;4995245;28;20046;-41
2023/01/20 09:34:17;;;;;;;2.35;1.58;;;15.00;1.00;;;;;;4995060;28;20051;-42
2023/01/20 09:36:44;;;;;;;2.55;1.27;;;15.00;1.00;;;;;;4995115;28;20085;-41
2023/01/20 09:44:57;;;;;;;6.20;1.65;;;14.90;1.00;;;;;;4994895;28;20043;-41
2023/01/20 09:47:29;;;;;;;4.75;1.60;;;14.90;1.00;;;;;;4995171;28;20382;-40
2023/01/20 09:53:16;;;;;;;2.67;1.27;;;14.90;1.00;;;;;;4994679;28;20124;-41
2023/01/20 09:55:53;;;;;;;3.88;1.65;;;14.90;1.00;;;;;;4994881;28;20155;-41
2023/01/20 09:58:35;;;;;;;2.00;1.20;;;14.90;1.00;;;;;;4994698;28;20049;-41
2023/01/20 10:01:08;;;;;;;3.85;1.55;;;14.80;1.00;;;;;;4994707;28;20051;-40
2023/01/20 10:03:58;;;;;;;3.97;1.42;;;14.80;1.00;;;;;;4977113;28;20038;-40
2023/01/20 10:06:31;;;;;;;2.03;1.20;;;14.80;1.00;;;;;;4993352;28;20105;-41
2023/01/20 10:09:07;;;;;;;2.95;1.20;;;14.80;1.00;;;;;;4994943;28;20109;-41
2023/01/20 10:11:39;;;;;;;2.85;1.40;;;14.70;1.00;;;;;;4994569;28;20049;-41
2023/01/20 10:14:31;;;;;;;2.33;1.35;;;14.70;1.00;;;;;;4994334;28;20046;-42
2023/01/20 10:17:26;;;;;;;3.30;1.55;;;14.70;1.00;;;;;;4994335;28;20039;-41
2023/01/20 10:20:02;;;;;;;3.75;1.90;;;14.70;1.00;;;;;;4994466;28;20034;-41
2023/01/20 10:22:39;;;;;;;3.20;1.48;;;14.60;1.00;;;;;;4992947;28;20050;-41
2023/01/20 10:25:19;;;;;;;2.15;1.25;;;14.60;1.00;;;;;;4993187;28;20049;-41
2023/01/20 10:27:55;;;;;;;1.77;1.05;;;14.60;1.00;;;;;;4992984;28;20116;-41
2023/01/20 10:30:28;;;;;;;3.15;1.73;;;14.60;1.00;;;;;;4994147;28;20050;-41
2023/01/20 10:33:09;;;;;;;2.20;1.17;;;14.60;1.00;;;;;;4992764;28;20069;-41
2023/01/20 10:35:46;;;;;;;2.60;1.70;;;14.60;1.00;;;;;;4993973;28;20047;-41
2023/01/20 10:38:25;;;;;;;2.45;1.10;;;14.50;1.00;;;;;;4994023;28;20097;-41
2023/01/20 10:41:02;;;;;;;2.55;1.75;;;14.50;1.00;;;;;;4994146;28;20042;-40
2023/01/20 10:43:29;;;;;;;2.80;1.60;;;14.50;1.00;;;;;;4993529;28;20125;-40
2023/01/20 10:46:22;;;;;;;2.53;1.52;;;14.50;1.00;;;;;;4993994;28;20043;-41
2023/01/20 10:49:16;;;;;;;2.67;1.67;;;14.50;1.00;;;;;;4993423;28;20100;-40
2023/01/20 10:52:04;;;;;;;3.50;1.80;;;14.50;1.00;;;;;;4993663;28;20050;-40
2023/01/20 10:54:45;;;;;;;3.35;1.83;;;14.40;1.00;;;;;;4993681;28;20050;-40
2023/01/20 10:57:14;;;;;;;2.53;1.58;;;14.40;1.00;;;;;;4993432;28;20077;-40
2023/01/20 10:59:48;;;;;;;2.70;1.80;;;14.40;1.00;;;;;;4993536;28;20129;-40
2023/01/20 11:02:27;;;;;;;3.55;1.42;;;14.40;1.00;;;;;;4993224;28;20172;-40
2023/01/20 11:05:00;;;;;;;2.40;1.30;;;14.40;1.00;;;;;;4992369;28;20113;-40
2023/01/20 11:07:30;;;;;;;5.63;1.70;;;14.40;1.00;;;;;;4992232;28;20050;-40
2023/01/20 11:09:59;;;;;;;3.17;1.77;;;14.30;1.00;;;;;;4993469;28;20046;-41
2023/01/20 11:12:32;;;;;;;3.03;1.65;;;14.30;1.00;;;;;;4993299;28;20053;-40
2023/01/20 11:15:00;;;;;;;3.08;1.92;;;14.30;1.00;;;;;;4993343;28;20133;-40
2023/01/20 11:17:26;;;;;;;3.88;2.00;;;14.30;1.00;;;;;;4993444;28;20042;-40
2023/01/20 11:19:55;;;;;;;3.65;1.98;;;14.30;1.00;;;;;;4993247;28;20051;-40
2023/01/20 11:22:28;;;;;;;3.70;2.10;;;14.20;1.00;;;;;;4992980;28;20073;-40
2023/01/20 11:24:57;;;;;;;3.08;2.05;;;14.20;1.00;;;;;;4992007;28;20038;-40
2023/01/20 11:27:33;;;;;;;4.25;1.98;;;14.30;1.00;;;;;;4993243;28;20494;-40
2023/01/20 11:30:05;;;;;;;5.03;2.33;;;14.20;1.00;;;;;;4993051;28;20050;-40
2023/01/20 11:32:33;;;;;;;3.53;2.13;;;14.20;1.00;;;;;;4993015;28;20125;-40
2023/01/20 11:35:16;;;;;;;5.30;2.15;;;14.20;1.00;;;;;;4991583;28;20077;-40
2023/01/20 11:37:43;;;;;;;3.65;1.95;;;14.20;1.00;;;;;;4992802;28;20133;-40
2023/01/20 11:40:25;;;;;;;2.72;2.00;;;14.20;1.00;;;;;;4992984;28;20120;-40
2023/01/20 11:42:53;;;;;;;3.75;2.28;;;14.10;1.00;;;;;;4992542;28;20045;-40
2023/01/20 11:45:33;;;;;;;5.82;2.85;;;14.10;1.00;;;;;;4992856;28;20556;-40
2023/01/20 11:48:03;;;;;;;3.72;2.45;;;14.10;1.00;;;;;;4992770;28;20422;-40
2023/01/20 11:50:39;;;;;;;4.93;2.42;;;14.10;1.00;;;;;;4992745;28;20046;-40
2023/01/20 11:53:30;;;;;;;5.45;2.38;;;14.00;1.00;;;;;;4992405;28;20498;-40
2023/01/20 11:56:17;;;;;;;4.80;2.60;;;14.10;1.00;;;;;;4992693;28;20045;-40
2023/01/20 11:58:54;;;;;;;4.20;2.15;;;14.00;1.00;;;;;;4991257;28;20038;-40
2023/01/20 12:01:27;;;;;;;3.08;2.15;;;14.00;1.00;;;;;;4992443;28;20049;-40
2023/01/20 12:04:04;;;;;;;3.60;2.17;;;14.00;1.00;;;;;;4992261;28;20038;-40
2023/01/20 12:06:44;;;;;;;4.15;2.30;;;14.00;1.00;;;;;;4992443;28;20042;-40
2023/01/20 12:09:14;;;;;;;6.70;2.42;;;14.00;1.00;;;;;;4992355;28;20038;-40
2023/01/20 12:12:20;;;;;;;5.03;2.30;;;13.90;1.00;;;;;;4992350;28;20502;-40
2023/01/20 12:14:58;;;;;;;3.67;2.30;;;13.90;1.00;;;;;;4992171;28;20054;-40
2023/01/20 12:17:44;;;;;;;4.00;2.72;;;13.90;1.00;;;;;;4992244;28;20402;-40
2023/01/20 12:20:45;;;;;;;3.83;2.30;;;13.90;1.00;;;;;;4992483;28;20049;-40
2023/01/20 12:23:45;;;;;;;4.80;2.28;;;13.90;1.00;;;;;;4971512;28;20092;-40
2023/01/20 12:26:17;;;;;;;2.50;1.73;;;13.80;1.00;;;;;;4992094;28;20047;-40
2023/01/20 12:29:06;;;;;;;3.83;2.15;;;13.90;1.00;;;;;;4992318;28;20105;-40
2023/01/20 12:31:33;;;;;;;3.63;2.75;;;13.80;1.00;;;;;;4992195;28;20097;-40
2023/01/20 12:34:13;;;;;;;2.63;1.80;;;13.80;1.00;;;;;;4991966;28;20495;-40
2023/01/20 12:37:02;;;;;;;2.95;1.80;;;13.80;1.00;;;;;;4990803;28;20133;-41
2023/01/20 12:39:50;;;;;;;4.93;2.70;;;13.80;1.00;;;;;;4991051;28;20034;-40
2023/01/20 12:42:44;;;;;;;3.03;1.92;;;13.80;1.00;;;;;;4992471;28;20467;-40
2023/01/20 12:45:37;;;;;;;2.83;2.00;;;13.80;1.00;;;;;;4992355;28;20048;-40
2023/01/20 12:48:41;;;;;;;3.10;1.97;;;13.70;1.00;;;;;;4974900;28;20562;-40
2023/01/20 12:51:17;;;;;;;;;;;13.70;1.00;;;;;;4992592;28;20799;-41
2023/01/20 12:54:00;;;;;;;2.67;1.45;;;13.70;1.00;;;;;;4990649;28;20382;-40
2023/01/20 12:56:53;;;;;;;3.95;1.90;;;13.70;1.00;;;;;;4990947;28;20121;-40
2023/01/20 12:59:39;;;;;;;2.63;1.73;;;13.70;1.00;;;;;;4990938;28;20357;-40
2023/01/20 13:02:15;;;;;;;3.63;2.58;;;13.70;1.00;;;;;;4990632;28;20043;-40
2023/01/20 13:05:06;;;;;;;3.15;1.80;;;13.80;1.00;;;;;;4991905;28;20046;-40
2023/01/20 13:07:39;;;;;;;3.58;2.30;;;13.90;1.00;;;;;;4992028;28;20055;-41
2023/01/20 13:10:24;;;;;;;3.60;2.00;;;14.00;1.00;;;;;;4991985;28;20112;-40
2023/01/20 13:13:04;;;;;;;2.53;1.77;;;14.10;1.00;;;;;;4993084;28;20414;-41
2023/01/20 13:15:51;;;;;;;3.60;1.88;;;14.20;1.00;;;;;;4995754;28;20042;-40
2023/01/20 13:18:31;;;;;;;3.70;1.40;;;14.30;1.00;;;;;;4995435;28;20043;-41
2023/01/20 13:20:58;;;;;;;2.83;1.73;;;14.40;1.00;;;;;;4995596;28;20062;-41
2023/01/20 13:23:32;;;;;;;2.97;2.03;;;14.60;1.00;;;;;;4994047;28;20498;-40
2023/01/20 13:26:00;;;;;;;1.80;1.27;;;14.70;1.00;;;;;;4995373;28;20491;-40
2023/01/20 13:28:29;;;;;;;2.72;1.67;;;14.80;1.00;;;;;;4995234;28;20081;-41
2023/01/20 13:30:58;;;;;;;2.25;1.52;;;14.90;1.00;;;;;;4994117;28;20138;-40
2023/01/20 13:33:36;;;;;;;2.80;2.08;;;15.00;1.00;;;;;;4995415;28;20401;-40